Time;durP1;ratioP1;P1;durP2;ratioP2;P2;SDS_P1;SDS_P2;PMS_P1;PMS_P2;Temp;Humidity;BMP_temperature;BMP_pressure;BME280_temperature;BME280_humidity;BME280_pressure;Samples;Min_cycle;Max_cycle;Signal;HPM_P1;HPM_P2
2021/10/29 00:01:03;;;;;;;;;;;;;;;5.69;60.42;100832.88;4392506;32;32644;-95
2021/10/29 00:03:54;;;;;;;;;;;;;;;5.63;60.57;100825.06;4381345;32;32279;-94
2021/10/29 00:06:33;;;;;;;;;;;;;;;5.53;60.78;100826.03;4369795;32;32669;-94
2021/10/29 00:09:24;;;;;;;;;;;;;;;5.60;60.41;100825.09;4407561;32;33715;-95
2021/10/29 00:12:04;;;;;;;;;;;;;;;5.65;59.99;100825.94;4378393;32;32087;-93
2021/10/29 00:14:55;;;;;;;;;;;;;;;5.65;60.00;100823.34;4363265;32;32485;-94
2021/10/29 00:17:33;;;;;;;;;;;;;;;5.49;60.49;100816.44;4393259;32;33215;-93
2021/10/29 00:24:30;;;;;;;;;;;;;;;5.69;59.90;100824.16;4396328;32;34142;-93
2021/10/29 00:27:22;;;;;;;;;;;;;;;5.55;60.17;100816.37;4383371;32;32873;-93
2021/10/29 00:30:01;;;;;;;;;;;;;;;5.53;60.15;100816.41;4409501;32;34140;-93
2021/10/29 00:32:51;;;;;;;;;;;;;;;5.22;61.17;100823.59;4372563;32;34215;-90
2021/10/29 00:35:20;;;;;;;;;;;;;;;5.20;61.32;100816.63;4393822;32;32459;-90
2021/10/29 00:38:10;;;;;;;;;;;;;;;5.25;60.86;100823.56;4370935;32;32489;-91
2021/10/29 00:40:57;;;;;;;;;;;;;;;5.35;60.50;100827.88;4383236;32;32791;-90
2021/10/29 00:43:30;;;;;;;;;;;;;;;5.36;60.12;100811.31;4380698;32;32771;-89
2021/10/29 00:45:57;;;;;;;;;;;;;;;5.51;59.54;100806.84;4388536;32;32162;-90
2021/10/29 00:48:25;;;;;;;;;;;;;;;5.60;59.21;100814.59;4371803;32;32723;-90
2021/10/29 00:50:53;;;;;;;;;;;;;;;5.32;60.27;100820.06;4374913;32;33820;-89
2021/10/29 00:53:23;;;;;;;;;;;;;;;5.26;60.48;100817.44;4382709;32;34191;-90
2021/10/29 00:55:50;;;;;;;;;;;;;;;5.17;60.49;100814.88;4377107;32;31778;-90
2021/10/29 00:58:18;;;;;;;;;;;;;;;5.16;60.41;100814.91;4358895;32;32863;-89
2021/10/29 01:00:46;;;;;;;;;;;;;;;5.36;59.75;100808.69;4369241;32;34569;-94
2021/10/29 01:03:41;;;;;;;;;;;;;;;5.25;60.03;100804.38;4365974;32;32733;-95
2021/10/29 01:06:23;;;;;;;;;;;;;;;5.14;60.80;100809.69;4394865;32;32485;-95
2021/10/29 01:09:17;;;;;;;;;;;;;;;5.20;60.42;100809.63;4378306;32;35423;-93
2021/10/29 01:11:59;;;;;;;;;;;;;;;5.15;60.62;100811.41;4365599;32;32797;-94
2021/10/29 01:14:54;;;;;;;;;;;;;;;5.15;60.67;100800.94;4383433;32;34680;-93
2021/10/29 01:17:34;;;;;;;;;;;;;;;5.13;60.67;100797.47;4391932;32;32353;-91
2021/10/29 01:20:25;;;;;;;;;;;;;;;5.15;60.36;100803.56;4383374;32;34006;-91
2021/10/29 01:23:03;;;;;;;;;;;;;;;5.20;60.41;100791.31;4389441;32;34071;-93
2021/10/29 01:26:06;;;;;;;;;;;;;;;5.10;60.80;100795.72;4391887;32;32944;-92
2021/10/29 01:28:47;;;;;;;;;;;;;;;5.10;60.61;100794.88;4344349;32;32288;-93
2021/10/29 01:31:38;;;;;;;;;;;;;;;4.99;60.74;100792.31;4365583;32;33926;-94
2021/10/29 01:34:18;;;;;;;;;;;;;;;5.00;60.57;100793.19;4367328;32;34144;-94
2021/10/29 01:37:11;;;;;;;;;;;;;;;4.66;61.58;100793.31;4375459;32;32709;-93
2021/10/29 01:39:51;;;;;;;;;;;;;;;5.01;60.51;100794.91;4380903;32;33765;-94
2021/10/29 01:42:46;;;;;;;;;;;;;;;4.95;60.72;100792.34;4372272;32;34664;-95
2021/10/29 01:45:24;;;;;;;;;;;;;;;4.63;61.37;100788.97;4344076;32;33277;-95
2021/10/29 01:52:18;;;;;;;;;;;;;;;4.86;60.56;100786.25;4365998;32;34071;-95
2021/10/29 01:55:09;;;;;;;;;;;;;;;4.77;60.72;100786.28;4405753;32;33205;-88
2021/10/29 01:57:37;;;;;;;;;;;;;;;4.88;60.45;100791.47;4394223;32;34323;-89
2021/10/29 02:00:05;;;;;;;;;;;;;;;4.69;60.74;100790.69;4399415;32;34558;-91
2021/10/29 02:02:42;;;;;;;;;;;;;;;4.81;60.41;100785.41;4390962;32;31784;-91
2021/10/29 02:05:29;;;;;;;;;;;;;;;4.84;60.46;100788.03;4359212;32;32817;-92
2021/10/29 02:08:11;;;;;;;;;;;;;;;4.62;61.25;100781.12;4383921;32;32889;-92
2021/10/29 02:11:02;;;;;;;;;;;;;;;4.63;60.92;100783.72;4347836;32;33659;-93
2021/10/29 02:13:41;;;;;;;;;;;;;;;4.74;60.97;100778.44;4388768;32;32148;-92
2021/10/29 02:16:42;;;;;;;;;;;;;;;4.60;61.50;100782.84;4361462;32;32885;-90
2021/10/29 02:19:21;;;;;;;;;;;;;;;4.77;61.04;100783.69;4384904;32;33992;-92
2021/10/29 02:22:03;;;;;;;;;;;;;;;4.81;60.87;100777.56;4375097;32;32766;-92
2021/10/29 02:24:42;;;;;;;;;;;;;;;4.65;61.33;100775.00;4391927;32;31813;-92
2021/10/29 02:27:34;;;;;;;;;;;;;;;4.51;61.88;100775.94;4381337;32;32886;-90
2021/10/29 02:30:03;;;;;;;;;;;;;;;4.47;61.93;100773.34;4390609;32;34481;-91
2021/10/29 02:32:54;;;;;;;;;;;;;;;4.65;61.31;100762.78;4336173;33;33544;-89
2021/10/29 02:35:36;;;;;;;;;;;;;;;4.68;61.05;100765.41;4363356;32;32703;-89
2021/10/29 02:38:16;;;;;;;;;;;;;;;4.74;60.72;100765.38;4388681;32;32780;-90
2021/10/29 02:41:04;;;;;;;;;;;;;;;4.81;60.27;100761.84;4382054;32;32914;-89
2021/10/29 02:43:51;;;;;;;;;;;;;;;4.59;60.72;100754.97;4384070;32;33470;-89
2021/10/29 02:46:37;;;;;;;;;;;;;;;4.63;60.38;100756.69;4399710;32;32005;-89
2021/10/29 02:49:10;;;;;;;;;;;;;;;4.67;60.39;100757.56;4376247;32;34283;-89
2021/10/29 02:51:37;;;;;;;;;;;;;;;4.73;60.17;100754.91;4392255;32;33084;-89
2021/10/29 02:54:08;;;;;;;;;;;;;;;4.69;60.27;100756.66;4390517;32;32867;-90
2021/10/29 02:56:38;;;;;;;;;;;;;;;4.74;60.23;100754.91;4390299;32;32575;-89
2021/10/29 02:59:07;;;;;;;;;;;;;;;4.76;60.16;100747.94;4390939;32;32987;-90
2021/10/29 03:01:47;;;;;;;;;;;;;;;4.46;61.34;100753.28;4389477;32;32859;-89
2021/10/29 03:04:18;;;;;;;;;;;;;;;4.58;61.01;100754.09;4379964;32;35570;-90
2021/10/29 03:06:52;;;;;;;;;;;;;;;4.58;60.82;100753.25;4389766;32;33246;-89
2021/10/29 03:09:21;;;;;;;;;;;;;;;4.68;60.36;100754.94;4403504;32;32931;-91
2021/10/29 03:12:11;;;;;;;;;;;;;;;4.47;60.46;100744.56;4401443;32;32335;-92
2021/10/29 03:14:51;;;;;;;;;;;;;;;4.63;60.14;100748.84;4367515;32;33610;-92
2021/10/29 03:17:42;;;;;;;;;;;;;;;4.50;60.36;100749.78;4383297;32;32393;-93
2021/10/29 03:20:22;;;;;;;;;;;;;;;4.47;60.64;100753.28;4385036;32;33438;-92
2021/10/29 03:23:14;;;;;;;;;;;;;;;4.55;60.61;100753.25;4343703;32;33440;-92
2021/10/29 03:26:01;;;;;;;;;;;;;;;4.48;60.86;100741.94;4341178;32;32436;-93
2021/10/29 03:29:06;;;;;;;;;;;;;;;4.20;61.69;100751.63;4342955;33;33272;-91
2021/10/29 03:31:45;;;;;;;;;;;;;;;4.46;61.15;100748.03;4362551;32;33143;-91
2021/10/29 03:34:36;;;;;;;;;;;;;;;4.51;60.76;100735.81;4349048;32;33001;-94
2021/10/29 03:40:46;;;;;;;;;;;;;;;4.47;60.65;100734.97;4362956;32;33620;-92
2021/10/29 03:43:55;;;;;;;;;;;;;;;4.33;61.10;100735.03;4376265;32;32697;-93
2021/10/29 03:46:48;;;;;;;;;;;;;;;4.46;60.74;100729.72;4333657;32;28434;-94
2021/10/29 03:49:43;;;;;;;;;;;;;;;4.37;61.18;100734.16;4392897;32;33996;-93
2021/10/29 03:52:47;;;;;;;;;;;;;;;4.33;61.37;100732.41;4371268;32;31849;-93
2021/10/29 03:55:34;;;;;;;;;;;;;;;4.39;60.86;100726.28;4351301;32;32586;-94
2021/10/29 03:58:25;;;;;;;;;;;;;;;4.19;61.46;100735.94;4372759;32;34401;-92
2021/10/29 04:01:04;;;;;;;;;;;;;;;4.26;61.25;100727.19;4367543;32;32961;-95
2021/10/29 04:03:55;;;;;;;;;;;;;;;4.23;61.04;100737.69;4402929;32;32077;-94
2021/10/29 04:06:34;;;;;;;;;;;;;;;4.47;60.20;100728.87;4382489;32;32639;-93
2021/10/29 04:09:25;;;;;;;;;;;;;;;4.44;60.32;100736.72;4353330;32;33268;-94
2021/10/29 04:12:05;;;;;;;;;;;;;;;4.40;60.48;100732.37;4381117;32;32927;-90
2021/10/29 04:14:35;;;;;;;;;;;;;;;4.36;60.78;100732.37;4367469;32;33376;-92
2021/10/29 04:17:14;;;;;;;;;;;;;;;4.45;60.73;100736.72;4367073;32;32545;-91
2021/10/29 04:19:56;;;;;;;;;;;;;;;4.56;60.08;100734.94;4362187;32;33088;-92
2021/10/29 04:22:48;;;;;;;;;;;;;;;4.50;60.35;100736.69;4360427;32;34491;-91
2021/10/29 04:25:27;;;;;;;;;;;;;;;4.30;60.94;100737.63;4362232;32;32014;-92
2021/10/29 04:28:29;;;;;;;;;;;;;;;4.31;60.69;100739.38;4349647;32;33288;-91
2021/10/29 04:31:15;;;;;;;;;;;;;;;3.97;61.55;100738.59;4377366;32;33270;-93
2021/10/29 04:34:06;;;;;;;;;;;;;;;4.13;60.92;100744.69;4362583;32;32930;-92
2021/10/29 04:36:46;;;;;;;;;;;;;;;4.09;61.10;100742.94;4398392;32;32518;-93
2021/10/29 04:39:37;;;;;;;;;;;;;;;4.04;61.98;100747.31;4374043;32;32420;-92
2021/10/29 04:42:18;;;;;;;;;;;;;;;4.20;61.18;100738.53;4360543;32;32799;-90
2021/10/29 04:45:12;;;;;;;;;;;;;;;4.01;62.24;100740.34;4346879;32;34189;-91
2021/10/29 04:47:56;;;;;;;;;;;;;;;4.09;61.82;100738.59;4393720;32;32039;-91
2021/10/29 04:50:46;;;;;;;;;;;;;;;3.96;61.82;100736.84;4405110;32;32848;-90
2021/10/29 04:53:25;;;;;;;;;;;;;;;4.24;60.95;100723.72;4351704;32;33698;-91
2021/10/29 04:56:16;;;;;;;;;;;;;;;4.08;61.80;100731.63;4364024;32;33283;-93
2021/10/29 04:58:55;;;;;;;;;;;;;;;4.10;61.68;100731.59;4351180;32;32043;-93
2021/10/29 05:01:46;;;;;;;;;;;;;;;4.05;62.28;100726.38;4374804;32;33617;-93
2021/10/29 05:04:25;;;;;;;;;;;;;;;4.29;61.37;100729.81;4368004;32;33404;-92
2021/10/29 05:07:16;;;;;;;;;;;;;;;4.24;61.25;100716.75;4384752;32;32871;-93
2021/10/29 05:09:56;;;;;;;;;;;;;;;4.22;61.33;100726.31;4375174;32;31917;-92
2021/10/29 05:12:47;;;;;;;;;;;;;;;4.07;61.93;100723.75;4366774;32;33963;-90
2021/10/29 05:15:17;;;;;;;;;;;;;;;3.99;62.03;100728.16;4373724;32;33154;-90
2021/10/29 05:18:07;;;;;;;;;;;;;;;4.18;61.56;100722.00;4346844;32;33252;-90
2021/10/29 05:20:35;;;;;;;;;;;;;;;4.19;61.35;100728.97;4326063;32;33233;-90
2021/10/29 05:23:03;;;;;;;;;;;;;;;3.94;62.02;100727.28;4346222;32;33192;-90
2021/10/29 05:25:32;;;;;;;;;;;;;;;4.16;61.42;100728.97;4326146;33;31418;-90
2021/10/29 05:28:00;;;;;;;;;;;;;;;3.90;61.54;100730.78;4345853;32;32575;-89
2021/10/29 05:30:29;;;;;;;;;;;;;;;3.95;61.47;100723.81;4355253;32;33344;-89
2021/10/29 05:32:56;;;;;;;;;;;;;;;4.10;60.84;100726.38;4345905;32;32886;-89
2021/10/29 05:35:23;;;;;;;;;;;;;;;4.09;61.19;100727.25;4345203;32;33589;-89
2021/10/29 05:37:51;;;;;;;;;;;;;;;3.96;61.52;100731.63;4348532;32;33115;-89
2021/10/29 05:40:19;;;;;;;;;;;;;;;3.89;61.86;100729.88;4345205;33;32126;-90
2021/10/29 05:42:47;;;;;;;;;;;;;;;3.90;62.39;100736.88;4353337;32;34034;-89
2021/10/29 05:45:17;;;;;;;;;;;;;;;4.43;60.66;100733.25;4341732;33;32582;-90
2021/10/29 05:47:45;;;;;;;;;;;;;;;4.34;60.85;100726.31;4337217;32;32693;-90
2021/10/29 05:50:13;;;;;;;;;;;;;;;4.32;61.07;100735.91;4350605;32;32548;-90
2021/10/29 05:56:17;;;;;;;;;;;;;;;4.30;61.34;100732.41;4347634;32;33935;-89
2021/10/29 05:58:45;;;;;;;;;;;;;;;4.39;61.28;100730.66;4326244;32;32424;-91
2021/10/29 06:01:24;;;;;;;;;;;;;;;4.25;61.99;100741.16;4361177;32;32863;-91
2021/10/29 06:04:25;;;;;;;;;;;;;;;4.11;62.92;100736.81;4342865;32;32893;-89
2021/10/29 06:06:57;;;;;;;;;;;;;;;4.49;63.12;100734.97;4348096;32;33487;-88
2021/10/29 06:09:25;;;;;;;;;;;;;;;4.54;66.35;100726.22;4337763;32;32963;-90
2021/10/29 06:11:53;;;;;;;;;;;;;;;4.85;64.85;100726.94;4364341;32;33452;-90
2021/10/29 06:14:20;;;;;;;;;;;;;;;4.81;67.96;100734.81;4347008;32;32911;-88
2021/10/29 06:16:48;;;;;;;;;;;;;;;5.09;69.04;100722.44;4344203;32;33216;-88
2021/10/29 06:19:15;;;;;;;;;;;;;;;5.47;69.78;100726.53;4348290;32;33214;-88
2021/10/29 06:24:23;;;;;;;;;;;;;;;6.18;68.78;100718.91;4346145;32;32770;-89
2021/10/29 06:27:05;;;;;;;;;;;;;;;6.33;67.91;100724.84;4352361;32;32984;-88
2021/10/29 06:29:33;;;;;;;;;;;;;;;6.87;66.92;100722.38;4329156;32;32899;-88
2021/10/29 06:32:02;;;;;;;;;;;;;;;7.03;65.97;100728.31;4358501;32;32185;-88
2021/10/29 06:34:32;;;;;;;;;;;;;;;7.12;65.89;100730.81;4347374;32;33384;-89
2021/10/29 06:37:00;;;;;;;;;;;;;;;7.18;66.02;100729.84;4346394;32;31937;-88
2021/10/29 06:39:27;;;;;;;;;;;;;;;7.42;65.32;100736.47;4351180;32;34145;-88
2021/10/29 06:41:56;;;;;;;;;;;;;;;7.70;64.00;100740.38;4342723;32;32243;-89
2021/10/29 07:03:08;;;;;;;;;;;;;;;8.86;60.02;100734.66;4364417;32;33269;-89
2021/10/29 07:11:35;;;;;;;;;;;;;;;9.07;59.65;100737.72;4358841;32;33809;-88
2021/10/29 07:41:36;;;;;;;;;;;;;;;10.24;56.47;100744.50;4363792;32;33402;-87
2021/10/29 07:44:13;;;;;;;;;;;;;;;10.47;55.23;100739.44;4370404;32;32789;-89
2021/10/29 07:46:41;;;;;;;;;;;;;;;10.59;54.94;100751.44;4351849;32;32536;-89
2021/10/29 07:49:08;;;;;;;;;;;;;;;10.43;56.12;100751.00;4360964;32;32914;-89
2021/10/29 07:51:39;;;;;;;;;;;;;;;10.95;54.00;100744.19;4360738;32;32993;-89
2021/10/29 07:54:06;;;;;;;;;;;;;;;10.48;55.91;100749.09;4361109;32;32865;-89
2021/10/29 07:56:34;;;;;;;;;;;;;;;10.44;56.40;100747.47;4361049;32;33261;-89
2021/10/29 07:59:19;;;;;;;;;;;;;;;10.60;54.64;100747.91;4361240;32;34287;-89
2021/10/29 08:01:48;;;;;;;;;;;;;;;11.27;53.36;100742.34;4363616;32;33327;-89
2021/10/29 08:04:16;;;;;;;;;;;;;;;11.28;52.93;100749.37;4363093;32;34074;-87
2021/10/29 08:06:43;;;;;;;;;;;;;;;11.49;52.69;100739.91;4363370;32;33358;-89
2021/10/29 08:09:11;;;;;;;;;;;;;;;11.70;52.01;100748.91;4363687;32;32738;-90
2021/10/29 08:11:39;;;;;;;;;;;;;;;11.92;51.24;100755.25;4336965;33;35003;-90
2021/10/29 08:14:06;;;;;;;;;;;;;;;11.85;52.08;100748.41;4360497;32;33072;-90
2021/10/29 08:16:34;;;;;;;;;;;;;;;11.62;52.02;100745.63;4364659;32;31943;-90
2021/10/29 08:19:02;;;;;;;;;;;;;;;11.74;51.64;100742.59;4355409;32;33402;-90
2021/10/29 08:21:30;;;;;;;;;;;;;;;11.61;52.62;100738.63;4363703;32;33621;-90
2021/10/29 08:23:57;;;;;;;;;;;;;;;11.88;51.72;100745.69;4360637;32;33440;-89
2021/10/29 08:26:25;;;;;;;;;;;;;;;11.51;52.44;100743.34;4349559;32;32462;-89
2021/10/29 08:28:52;;;;;;;;;;;;;;;11.97;51.40;100737.44;4361099;32;32626;-90
2021/10/29 08:31:20;;;;;;;;;;;;;;;12.43;50.36;100741.06;4351125;32;33006;-90
2021/10/29 08:33:48;;;;;;;;;;;;;;;12.02;50.67;100738.13;4363224;32;32608;-90
2021/10/29 08:36:16;;;;;;;;;;;;;;;12.41;50.44;100736.75;4340931;32;32215;-90
2021/10/29 08:38:44;;;;;;;;;;;;;;;12.91;48.98;100726.03;4351037;32;33134;-90
2021/10/29 08:41:27;;;;;;;;;;;;;;;13.23;48.70;100723.03;4352874;32;32952;-88
2021/10/29 08:43:55;;;;;;;;;;;;;;;13.39;48.42;100725.94;4351528;32;33113;-90
2021/10/29 08:46:23;;;;;;;;;;;;;;;13.37;48.32;100719.81;4339267;32;32025;-89
2021/10/29 08:48:51;;;;;;;;;;;;;;;13.40;47.64;100718.84;4350083;32;33609;-89
2021/10/29 08:51:19;;;;;;;;;;;;;;;13.32;47.11;100724.44;4363357;32;33037;-89
2021/10/29 08:53:47;;;;;;;;;;;;;;;13.48;47.36;100717.63;4363328;32;33029;-89
2021/10/29 08:56:15;;;;;;;;;;;;;;;13.41;47.94;100713.47;4360545;32;32483;-90
2021/10/29 08:59:03;;;;;;;;;;;;;;;13.22;47.82;100710.69;4360865;32;33336;-89
2021/10/29 09:01:51;;;;;;;;;;;;;;;13.66;47.44;100715.09;4355707;32;34073;-89
2021/10/29 09:04:32;;;;;;;;;;;;;;;13.42;47.00;100714.34;4365372;32;32671;-89
2021/10/29 09:07:30;;;;;;;;;;;;;;;13.85;46.20;100713.41;4364306;32;32458;-89
2021/10/29 09:32:19;;;;;;;;;;;;;;;15.03;43.13;100686.84;4362381;32;32512;-89
2021/10/29 09:35:14;;;;;;;;;;;;;;;14.84;43.77;100689.50;4363172;32;33400;-89
2021/10/29 09:37:54;;;;;;;;;;;;;;;15.44;44.20;100686.62;4348534;32;32759;-90
2021/10/29 09:40:28;;;;;;;;;;;;;;;15.54;42.77;100693.22;4362153;32;33137;-89
2021/10/29 09:43:00;;;;;;;;;;;;;;;15.46;42.67;100682.94;4363108;32;34571;-90
2021/10/29 09:45:31;;;;;;;;;;;;;;;15.90;44.50;100682.50;4362743;32;33375;-91
2021/10/29 09:48:14;;;;;;;;;;;;;;;15.95;41.07;100682.25;4364697;32;33099;-89
2021/10/29 09:50:53;;;;;;;;;;;;;;;15.39;41.92;100684.19;4360342;32;32622;-90
2021/10/29 09:56:13;;;;;;;;;;;;;;;15.88;41.53;100685.25;4362649;32;33145;-89
2021/10/29 09:58:41;;;;;;;;;;;;;;;15.53;43.00;100676.38;4363392;32;33660;-89
2021/10/29 10:01:09;;;;;;;;;;;;;;;15.96;41.68;100673.34;4347286;33;33987;-89
2021/10/29 10:03:38;;;;;;;;;;;;;;;16.49;41.89;100673.16;4336284;33;33065;-89
2021/10/29 10:06:05;;;;;;;;;;;;;;;16.91;41.97;100666.44;4360631;32;34006;-89
2021/10/29 10:08:34;;;;;;;;;;;;;;;17.02;38.51;100661.34;4347930;33;34366;-87
2021/10/29 10:11:04;;;;;;;;;;;;;;;17.23;37.49;100664.56;4343125;33;32196;-89
2021/10/29 10:13:33;;;;;;;;;;;;;;;17.25;37.61;100657.37;4348094;33;33414;-87
2021/10/29 10:16:02;;;;;;;;;;;;;;;17.45;36.46;100664.22;4348374;32;33929;-88
2021/10/29 10:18:31;;;;;;;;;;;;;;;17.15;38.44;100659.69;4347601;33;34281;-86
2021/10/29 10:20:59;;;;;;;;;;;;;;;17.86;37.07;100648.44;4347487;33;32379;-87
2021/10/29 10:23:31;;;;;;;;;;;;;;;17.92;37.11;100655.22;4334996;33;33184;-89
2021/10/29 10:29:45;;;;;;;;;;;;;;;17.98;39.42;100646.81;4347676;33;32908;-89
2021/10/29 10:43:41;;;;;;;;;;;;;;;19.44;34.02;100627.66;4377783;32;33363;-88
2021/10/29 10:46:05;;;;;;;;;;;;;;;19.08;35.75;100628.28;4350009;32;32861;-89
2021/10/29 10:48:36;;;;;;;;;;;;;;;18.84;33.40;100614.69;4344833;33;32779;-89
2021/10/29 10:51:22;;;;;;;;;;;;;;;18.51;35.20;100617.69;4335206;33;33203;-89
2021/10/29 10:53:56;;;;;;;;;;;;;;;19.08;33.33;100613.06;4359545;32;32660;-89
2021/10/29 10:56:41;;;;;;;;;;;;;;;18.98;35.19;100609.28;4359599;32;32676;-89
2021/10/29 11:02:44;;;;;;;;;;;;;;;19.75;33.91;100596.13;4344669;33;34486;-89
2021/10/29 11:05:22;;;;;;;;;;;;;;;19.90;32.82;100600.44;4346995;33;31704;-90
2021/10/29 11:11:19;;;;;;;;;;;;;;;19.66;33.21;100598.50;4347005;33;33368;-89
2021/10/29 11:13:53;;;;;;;;;;;;;;;19.37;33.01;100588.84;4317876;33;32927;-89
2021/10/29 11:16:24;;;;;;;;;;;;;;;20.03;31.59;100589.69;4318432;33;32998;-89
2021/10/29 11:18:56;;;;;;;;;;;;;;;19.99;31.84;100586.37;4335892;33;32513;-89
2021/10/29 11:21:34;;;;;;;;;;;;;;;19.39;32.37;100586.94;4337000;33;33013;-89
2021/10/29 11:24:08;;;;;;;;;;;;;;;19.72;31.82;100574.91;4336439;33;33970;-89
2021/10/29 11:26:40;;;;;;;;;;;;;;;19.58;33.12;100576.69;4349111;32;33208;-89
2021/10/29 11:29:08;;;;;;;;;;;;;;;19.16;32.05;100575.97;4339163;33;33322;-89
2021/10/29 11:31:41;;;;;;;;;;;;;;;19.29;31.72;100580.50;4356346;32;34083;-89
2021/10/29 11:34:12;;;;;;;;;;;;;;;19.53;31.85;100564.56;4363875;32;32756;-89
2021/10/29 11:36:41;;;;;;;;;;;;;;;19.42;32.36;100562.66;4363445;32;32659;-89
2021/10/29 11:39:10;;;;;;;;;;;;;;;19.30;34.26;100564.31;4338739;32;33418;-89
2021/10/29 11:41:39;;;;;;;;;;;;;;;19.82;31.92;100549.19;4351030;32;33907;-89
2021/10/29 11:44:08;;;;;;;;;;;;;;;19.45;31.70;100549.03;4351309;32;32486;-89
2021/10/29 11:46:35;;;;;;;;;;;;;;;19.78;31.23;100553.03;4351446;32;33375;-88
2021/10/29 11:49:07;;;;;;;;;;;;;;;19.39;32.92;100546.78;4351368;32;33781;-88
2021/10/29 11:51:36;;;;;;;;;;;;;;;18.95;31.90;100542.63;4351614;32;33257;-89
2021/10/29 11:59:54;;;;;;;;;;;;;;;19.35;31.53;100529.19;4339125;32;32990;-88
2021/10/29 12:07:55;;;;;;;;;;;;;;;19.24;31.99;100523.72;4352907;32;32516;-88
2021/10/29 12:10:23;;;;;;;;;;;;;;;19.45;31.47;100527.59;4350945;32;34627;-88
2021/10/29 12:12:54;;;;;;;;;;;;;;;19.84;30.72;100515.09;4338743;32;33120;-88
2021/10/29 12:15:24;;;;;;;;;;;;;;;19.89;32.08;100507.56;4350825;32;32828;-88
2021/10/29 12:20:30;;;;;;;;;;;;;;;20.10;29.86;100508.72;4350780;32;33685;-88
2021/10/29 12:23:08;;;;;;;;;;;;;;;19.84;30.82;100505.22;4351223;32;34174;-88
2021/10/29 12:26:13;;;;;;;;;;;;;;;19.94;30.21;100494.72;4348559;32;34263;-89
2021/10/29 12:28:35;;;;;;;;;;;;;;;20.17;30.11;100493.91;4356453;32;32680;-88
2021/10/29 13:01:31;;;;;;;;;;;;;;;18.82;31.50;100458.75;4367297;32;32309;-87
2021/10/29 13:04:13;;;;;;;;;;;;;;;18.84;30.72;100462.19;4362458;32;32831;-86
2021/10/29 13:07:01;;;;;;;;;;;;;;;18.80;30.73;100458.00;4362625;32;32906;-87
2021/10/29 13:09:31;;;;;;;;;;;;;;;18.83;30.29;100447.94;4347345;32;33349;-87
2021/10/29 13:12:06;;;;;;;;;;;;;;;19.22;29.63;100431.94;4347827;32;32634;-87
2021/10/29 13:14:36;;;;;;;;;;;;;;;19.19;30.06;100433.87;4361437;32;33681;-88
2021/10/29 13:17:07;;;;;;;;;;;;;;;19.39;30.38;100434.28;4362241;32;33516;-87
2021/10/29 13:19:53;;;;;;;;;;;;;;;18.76;30.97;100445.81;4362265;32;32992;-86
2021/10/29 13:50:13;;;;;;;;;;;;;;;19.09;31.65;100432.81;4349933;32;33514;-87
2021/10/29 13:55:14;;;;;;;;;;;;;;;18.61;32.05;100421.78;4358462;32;32432;-87
2021/10/29 14:30:23;;;;;;;;;;;;;;;17.87;32.89;100404.34;4359387;32;32877;-87
2021/10/29 14:33:05;;;;;;;;;;;;;;;17.59;33.43;100397.22;4334012;32;32641;-86
2021/10/29 14:35:43;;;;;;;;;;;;;;;17.69;33.58;100399.31;4334551;32;34678;-87
2021/10/29 14:41:26;;;;;;;;;;;;;;;17.86;33.95;100391.12;4349302;32;34621;-87
2021/10/29 14:44:03;;;;;;;;;;;;;;;18.10;33.10;100394.00;4357913;32;34063;-87
2021/10/29 14:49:51;;;;;;;;;;;;;;;18.03;32.80;100393.53;4305037;33;33689;-86
2021/10/29 15:03:11;;;;;;;;;;;;;;;17.95;32.50;100398.53;4361867;32;34186;-87
2021/10/29 15:05:56;;;;;;;;;;;;;;;17.97;32.02;100393.06;4361703;32;33774;-87
2021/10/29 15:30:48;;;;;;;;;;;;;;;17.47;33.66;100389.09;4356736;32;32944;-87
2021/10/29 15:41:09;;;;;;;;;;;;;;;17.13;34.22;100386.72;4349227;32;33344;-87
2021/10/29 15:49:51;;;;;;;;;;;;;;;16.87;34.92;100390.16;4360614;32;34108;-87
2021/10/29 15:51:54;;;;;;;;;;;;;;;16.77;35.32;100394.31;4345774;33;34193;-87
2021/10/29 15:54:22;;;;;;;;;;;;;;;16.56;35.86;100394.59;4352907;32;32423;-87
2021/10/29 15:57:01;;;;;;;;;;;;;;;16.63;35.79;100398.62;4360108;32;33128;-87
2021/10/29 16:02:17;;;;;;;;;;;;;;;16.49;36.13;100395.91;4362131;32;34341;-87
2021/10/29 16:18:37;;;;;;;;;;;;;;;15.55;38.68;100402.97;4348391;32;34554;-86
2021/10/29 16:21:04;;;;;;;;;;;;;;;15.54;38.84;100401.28;4360059;32;34214;-86
2021/10/29 16:23:32;;;;;;;;;;;;;;;15.54;39.46;100397.75;4362486;32;34171;-86
2021/10/29 16:26:07;;;;;;;;;;;;;;;15.44;38.99;100405.38;4362557;32;33199;-87
2021/10/29 16:28:36;;;;;;;;;;;;;;;15.50;38.96;100402.38;4350597;32;33880;-86
2021/10/29 16:31:03;;;;;;;;;;;;;;;15.50;39.49;100397.06;4360975;32;33371;-86
2021/10/29 16:33:35;;;;;;;;;;;;;;;15.19;39.77;100399.63;4351129;32;34293;-86
2021/10/29 16:36:02;;;;;;;;;;;;;;;15.33;39.17;100402.41;4362689;32;31846;-87
2021/10/29 16:38:30;;;;;;;;;;;;;;;15.22;39.26;100405.66;4349011;32;34281;-86
2021/10/29 16:40:58;;;;;;;;;;;;;;;15.04;40.00;100402.16;4365687;32;34350;-86
2021/10/29 16:43:25;;;;;;;;;;;;;;;14.85;40.72;100406.72;4362290;32;34319;-86
2021/10/29 16:45:53;;;;;;;;;;;;;;;15.01;39.89;100407.66;4355871;32;33092;-86
2021/10/29 16:48:24;;;;;;;;;;;;;;;14.99;39.92;100406.87;4362845;32;33124;-86
2021/10/29 16:50:52;;;;;;;;;;;;;;;15.07;39.60;100410.00;4362694;32;33702;-86
2021/10/29 16:53:21;;;;;;;;;;;;;;;14.78;40.44;100411.50;4362549;32;33820;-86
2021/10/29 16:55:48;;;;;;;;;;;;;;;14.88;40.40;100419.87;4359998;32;33904;-86
2021/10/29 16:58:16;;;;;;;;;;;;;;;15.00;40.79;100411.28;4365151;32;34536;-87
2021/10/29 17:00:43;;;;;;;;;;;;;;;14.93;41.14;100416.97;4354778;32;33916;-86
2021/10/29 17:03:11;;;;;;;;;;;;;;;14.76;41.65;100423.16;4362849;32;33281;-86
2021/10/29 17:05:55;;;;;;;;;;;;;;;14.52;42.29;100418.12;4362740;32;32864;-86
2021/10/29 17:08:22;;;;;;;;;;;;;;;14.32;42.81;100418.25;4362573;32;33399;-86
2021/10/29 17:10:50;;;;;;;;;;;;;;;14.14;43.31;100419.13;4362361;32;33514;-88
2021/10/29 17:13:17;;;;;;;;;;;;;;;14.03;43.44;100422.31;4362905;32;33472;-87
2021/10/29 17:15:45;;;;;;;;;;;;;;;14.06;43.26;100428.34;4350182;32;32496;-87
2021/10/29 17:18:13;;;;;;;;;;;;;;;13.88;43.71;100428.38;4362365;32;34387;-87
2021/10/29 17:20:41;;;;;;;;;;;;;;;13.74;44.19;100431.66;4362811;32;33411;-87
2021/10/29 17:23:08;;;;;;;;;;;;;;;13.04;46.09;100425.91;4361943;32;33313;-87
2021/10/29 17:25:36;;;;;;;;;;;;;;;12.85;46.66;100429.44;4362734;32;33299;-87
2021/10/29 17:28:03;;;;;;;;;;;;;;;12.72;46.81;100424.69;4347530;33;33434;-87
2021/10/29 17:30:35;;;;;;;;;;;;;;;12.76;46.80;100430.69;4334955;32;33286;-87
2021/10/29 17:33:03;;;;;;;;;;;;;;;12.79;46.63;100427.94;4326259;32;33406;-87
2021/10/29 17:35:30;;;;;;;;;;;;;;;12.76;46.83;100426.25;4350391;32;34075;-87
2021/10/29 17:37:58;;;;;;;;;;;;;;;12.42;47.88;100432.09;4325962;32;33994;-88
2021/10/29 17:40:36;;;;;;;;;;;;;;;12.55;47.46;100432.47;4326036;32;33320;-87
2021/10/29 17:43:05;;;;;;;;;;;;;;;12.46;47.73;100428.41;4350683;32;34320;-87
2021/10/29 17:45:33;;;;;;;;;;;;;;;12.59;47.32;100427.91;4350370;32;32480;-87
2021/10/29 17:48:00;;;;;;;;;;;;;;;12.03;48.86;100435.44;4350237;32;35032;-87
2021/10/29 17:50:28;;;;;;;;;;;;;;;12.23;48.31;100436.44;4325600;32;33381;-88
2021/10/29 17:52:55;;;;;;;;;;;;;;;12.15;48.58;100427.94;4350271;32;32750;-88
2021/10/29 17:55:24;;;;;;;;;;;;;;;12.12;48.74;100428.06;4362745;32;32243;-88
2021/10/29 17:57:51;;;;;;;;;;;;;;;11.84;49.41;100437.09;4350197;32;32962;-89
2021/10/29 18:00:19;;;;;;;;;;;;;;;11.93;49.25;100433.22;4349965;32;33587;-90
2021/10/29 18:02:47;;;;;;;;;;;;;;;11.89;49.42;100432.47;4362711;32;34168;-88
2021/10/29 18:05:17;;;;;;;;;;;;;;;12.03;48.89;100430.16;4362652;32;33292;-88
2021/10/29 18:07:44;;;;;;;;;;;;;;;11.95;49.19;100432.22;4362466;32;34089;-88
2021/10/29 18:10:12;;;;;;;;;;;;;;;12.02;48.94;100438.16;4362372;32;33089;-88
2021/10/29 18:12:39;;;;;;;;;;;;;;;11.96;49.14;100441.91;4362573;32;33714;-89
2021/10/29 18:15:07;;;;;;;;;;;;;;;11.89;49.45;100432.47;4361955;32;33121;-89
2021/10/29 18:17:35;;;;;;;;;;;;;;;11.75;49.88;100440.06;4362449;32;34534;-88